Time;durP1;ratioP1;P1;durP2;ratioP2;P2;SDS_P1;SDS_P2;PMS_P1;PMS_P2;Temp;Humidity;BMP_temperature;BMP_pressure;BME280_temperature;BME280_humidity;BME280_pressure;Samples;Min_cycle;Max_cycle;Signal;HPM_P1;HPM_P2
2023/07/06 00:00:14;;;;;;;6.75;3.42;;;;;;;;;;5047986;28;20104;-70
2023/07/06 00:02:40;;;;;;;5.15;4.35;;;;;;;;;;5038393;28;20391;-70
2023/07/06 00:05:06;;;;;;;12.02;4.30;;;;;;;;;;5045576;28;20032;-70
2023/07/06 00:07:34;;;;;;;7.53;5.22;;;;;;;;;;5049757;28;20065;-70
2023/07/06 00:10:00;;;;;;;8.48;4.63;;;;;;;;;;5052775;28;20033;-70
2023/07/06 00:12:29;;;;;;;5.57;4.03;;;;;;;;;;5038626;28;20364;-70
2023/07/06 00:14:55;;;;;;;10.20;4.85;;;;;;;;;;5040157;28;20430;-70
2023/07/06 00:17:21;;;;;;;7.55;3.95;;;;;;;;;;5033627;28;20060;-70
2023/07/06 00:19:48;;;;;;;9.18;4.15;;;;;;;;;;5042564;28;20428;-71
2023/07/06 00:22:14;;;;;;;6.90;4.18;;;;;;;;;;5044747;28;20028;-71
2023/07/06 00:24:42;;;;;;;4.88;4.03;;;;;;;;;;5037349;28;20041;-70
2023/07/06 00:27:08;;;;;;;6.80;4.65;;;;;;;;;;5050964;28;20502;-70
2023/07/06 00:29:35;;;;;;;10.30;4.75;;;;;;;;;;5041351;28;20041;-70
2023/07/06 00:32:15;;;;;;;6.75;4.50;;;;;;;;;;5044232;28;20474;-71
2023/07/06 00:34:45;;;;;;;7.75;5.00;;;;;;;;;;5039194;28;21046;-70
2023/07/06 00:37:12;;;;;;;8.30;4.68;;;;;;;;;;5043281;28;20045;-70
2023/07/06 00:39:39;;;;;;;6.40;4.03;;;;;;;;;;5047894;28;20027;-71
2023/07/06 00:42:05;;;;;;;6.15;4.40;;;;;;;;;;5042179;28;20021;-71
2023/07/06 00:44:50;;;;;;;9.02;4.63;;;;;;;;;;5043038;28;20033;-71
2023/07/06 00:47:18;;;;;;;8.85;4.90;;;;;;;;;;5044939;28;20040;-70
2023/07/06 00:49:45;;;;;;;7.75;5.00;;;;;;;;;;5045956;28;20021;-71
2023/07/06 00:52:11;;;;;;;6.18;4.50;;;;;;;;;;5039012;28;20032;-70
2023/07/06 00:54:40;;;;;;;11.45;4.95;;;;;;;;;;5053919;28;20029;-71
2023/07/06 00:57:07;;;;;;;7.40;4.88;;;;;;;;;;5041783;28;20028;-71
2023/07/06 00:59:34;;;;;;;7.22;5.35;;;;;;;;;;5037395;28;20182;-70
2023/07/06 01:02:00;;;;;;;6.57;5.10;;;;;;;;;;5040894;28;20053;-71
2023/07/06 01:04:27;;;;;;;6.68;4.82;;;;;;;;;;5034553;28;20471;-70
2023/07/06 01:06:55;;;;;;;7.72;4.93;;;;;;;;;;5041510;28;20061;-70
2023/07/06 01:09:21;;;;;;;5.75;4.55;;;;;;;;;;5050737;28;20029;-70
2023/07/06 01:11:49;;;;;;;8.80;4.82;;;;;;;;;;5047183;28;20037;-71
2023/07/06 01:14:15;;;;;;;13.05;6.22;;;;;;;;;;5047420;28;20695;-70
2023/07/06 01:16:42;;;;;;;10.43;5.80;;;;;;;;;;5046424;28;20040;-71
2023/07/06 01:19:08;;;;;;;6.75;5.45;;;;;;;;;;5040163;28;20045;-70
2023/07/06 01:21:42;;;;;;;9.73;5.75;;;;;;;;;;5039474;28;20021;-70
2023/07/06 01:24:24;;;;;;;7.35;5.05;;;;;;;;;;5040106;28;20060;-71
2023/07/06 01:27:05;;;;;;;10.88;5.13;;;;;;;;;;5040269;28;20060;-71
2023/07/06 01:29:40;;;;;;;8.80;4.88;;;;;;;;;;5037425;28;20037;-70
2023/07/06 01:32:13;;;;;;;6.32;4.70;;;;;;;;;;5041429;28;20029;-70
2023/07/06 01:34:41;;;;;;;12.32;5.32;;;;;;;;;;5038637;28;20032;-70
2023/07/06 01:37:07;;;;;;;8.52;4.97;;;;;;;;;;5041501;28;20039;-71
2023/07/06 01:39:33;;;;;;;8.30;5.38;;;;;;;;;;5039757;28;20386;-70
2023/07/06 01:42:08;;;;;;;9.65;5.35;;;;;;;;;;5041273;28;20033;-70
2023/07/06 01:44:35;;;;;;;8.50;4.72;;;;;;;;;;5042279;28;20073;-70
2023/07/06 01:47:02;;;;;;;7.50;4.82;;;;;;;;;;5041159;28;20061;-70
2023/07/06 01:49:28;;;;;;;9.82;5.22;;;;;;;;;;5042610;28;20116;-70
2023/07/06 01:51:54;;;;;;;8.57;5.97;;;;;;;;;;5041254;28;20029;-70
2023/07/06 01:54:22;;;;;;;8.40;5.05;;;;;;;;;;5038501;28;20496;-71
2023/07/06 01:56:52;;;;;;;8.60;5.68;;;;;;;;;;5041605;28;20032;-70
2023/07/06 01:59:19;;;;;;;5.97;4.80;;;;;;;;;;5035833;28;20053;-70
2023/07/06 02:01:48;;;;;;;7.75;5.32;;;;;;;;;;5035867;28;20047;-70
2023/07/06 02:04:15;;;;;;;10.43;6.20;;;;;;;;;;5041545;28;20040;-71
2023/07/06 02:06:41;;;;;;;13.10;5.72;;;;;;;;;;5036446;28;20028;-70
2023/07/06 02:09:13;;;;;;;11.55;8.13;;;;;;;;;;5042544;28;20076;-71
2023/07/06 02:11:39;;;;;;;11.18;6.05;;;;;;;;;;5039134;28;20029;-71
2023/07/06 02:14:05;;;;;;;10.60;5.75;;;;;;;;;;5036782;28;20048;-72
2023/07/06 02:16:31;;;;;;;10.45;6.15;;;;;;;;;;5053501;28;20045;-70
2023/07/06 02:19:01;;;;;;;8.13;5.88;;;;;;;;;;5038160;28;20493;-70
2023/07/06 02:21:27;;;;;;;7.82;5.53;;;;;;;;;;5037000;28;20079;-70
2023/07/06 02:23:53;;;;;;;11.50;6.18;;;;;;;;;;5040601;28;20029;-70
2023/07/06 02:26:19;;;;;;;10.13;5.90;;;;;;;;;;5038075;28;20090;-70
2023/07/06 02:28:45;;;;;;;9.80;5.97;;;;;;;;;;5039472;28;20048;-70
2023/07/06 02:31:11;;;;;;;10.77;6.65;;;;;;;;;;5034844;28;20487;-70
2023/07/06 02:33:37;;;;;;;8.52;5.55;;;;;;;;;;5034744;28;20032;-70
2023/07/06 02:36:04;;;;;;;13.95;7.18;;;;;;;;;;5038340;28;20036;-70
2023/07/06 02:38:30;;;;;;;10.75;7.10;;;;;;;;;;5037772;28;20059;-70
2023/07/06 02:41:04;;;;;;;9.40;7.35;;;;;;;;;;5038053;28;20113;-70
2023/07/06 02:43:31;;;;;;;15.30;7.30;;;;;;;;;;5040583;28;20025;-70
2023/07/06 02:45:57;;;;;;;13.30;7.80;;;;;;;;;;5037527;28;20108;-70
2023/07/06 02:48:24;;;;;;;9.25;7.38;;;;;;;;;;5037062;28;20036;-70
2023/07/06 02:50:51;;;;;;;11.25;7.30;;;;;;;;;;5034162;28;20057;-70
2023/07/06 02:53:17;;;;;;;12.70;7.93;;;;;;;;;;5037188;28;20041;-70
2023/07/06 02:55:46;;;;;;;13.40;6.97;;;;;;;;;;5048200;28;20051;-70
2023/07/06 02:58:12;;;;;;;13.15;7.95;;;;;;;;;;5040963;28;20056;-70
2023/07/06 03:00:38;;;;;;;13.30;7.78;;;;;;;;;;5039898;28;20047;-70
2023/07/06 03:03:09;;;;;;;12.38;7.35;;;;;;;;;;5035654;28;20461;-70
2023/07/06 03:05:35;;;;;;;12.23;8.75;;;;;;;;;;5042004;28;20028;-70
2023/07/06 03:08:02;;;;;;;9.77;8.00;;;;;;;;;;5030070;28;20052;-70
2023/07/06 03:10:28;;;;;;;12.88;8.27;;;;;;;;;;5047572;28;20531;-71
2023/07/06 03:12:54;;;;;;;21.90;9.38;;;;;;;;;;5035852;28;20039;-71
2023/07/06 03:15:20;;;;;;;11.57;8.02;;;;;;;;;;5037860;28;21040;-71
2023/07/06 03:17:48;;;;;;;13.90;8.55;;;;;;;;;;5041306;28;20045;-70
2023/07/06 03:20:14;;;;;;;10.52;7.93;;;;;;;;;;5042247;28;20474;-70
2023/07/06 03:22:48;;;;;;;13.63;8.32;;;;;;;;;;5040405;28;20115;-71
2023/07/06 03:25:18;;;;;;;12.63;8.43;;;;;;;;;;5044077;28;20377;-70
2023/07/06 03:27:46;;;;;;;14.85;8.73;;;;;;;;;;5032171;28;20517;-70
2023/07/06 03:30:14;;;;;;;10.95;7.72;;;;;;;;;;5035757;28;20068;-70
2023/07/06 03:32:40;;;;;;;16.58;8.52;;;;;;;;;;5045260;28;20044;-71
2023/07/06 03:35:09;;;;;;;15.73;8.23;;;;;;;;;;5040897;28;20035;-70
2023/07/06 03:37:37;;;;;;;14.45;7.70;;;;;;;;;;5033101;28;20029;-70
2023/07/06 03:40:05;;;;;;;11.70;7.38;;;;;;;;;;5043221;28;20021;-70
2023/07/06 03:42:31;;;;;;;15.27;8.25;;;;;;;;;;5042641;28;20128;-70
2023/07/06 03:44:57;;;;;;;13.82;7.78;;;;;;;;;;5040400;28;20105;-70
2023/07/06 03:47:23;;;;;;;12.50;7.63;;;;;;;;;;5037016;28;20029;-71
2023/07/06 03:49:52;;;;;;;12.63;7.88;;;;;;;;;;5055842;28;20034;-70
2023/07/06 03:52:18;;;;;;;14.05;7.25;;;;;;;;;;5050095;28;20025;-71
2023/07/06 03:54:47;;;;;;;10.90;7.55;;;;;;;;;;5048614;28;20123;-70
2023/07/06 03:57:16;;;;;;;17.20;8.48;;;;;;;;;;5043861;28;20032;-71
2023/07/06 03:59:42;;;;;;;13.95;8.68;;;;;;;;;;5040513;28;20036;-71
2023/07/06 04:02:09;;;;;;;11.68;7.57;;;;;;;;;;5043663;28;20081;-71
2023/07/06 04:04:35;;;;;;;10.55;7.78;;;;;;;;;;5060773;28;20116;-70
2023/07/06 04:07:01;;;;;;;15.32;7.80;;;;;;;;;;5036634;28;20029;-71
2023/07/06 04:09:28;;;;;;;16.52;8.18;;;;;;;;;;5038836;28;20125;-71
2023/07/06 04:11:54;;;;;;;12.00;7.25;;;;;;;;;;5046316;28;20029;-70
2023/07/06 04:14:24;;;;;;;11.05;7.78;;;;;;;;;;5038072;28;20397;-70
2023/07/06 04:16:51;;;;;;;13.43;8.35;;;;;;;;;;5042919;28;20475;-70
2023/07/06 04:19:17;;;;;;;16.95;7.57;;;;;;;;;;5038282;28;20033;-71
2023/07/06 04:21:43;;;;;;;13.18;8.13;;;;;;;;;;5054807;28;20061;-70
2023/07/06 04:24:09;;;;;;;10.20;6.95;;;;;;;;;;5038838;28;20068;-70
2023/07/06 04:26:35;;;;;;;14.15;7.50;;;;;;;;;;5041541;28;20125;-70
2023/07/06 04:29:04;;;;;;;21.92;7.13;;;;;;;;;;5046753;28;20025;-70
2023/07/06 04:31:30;;;;;;;14.32;7.50;;;;;;;;;;5048486;28;20025;-70
2023/07/06 04:33:56;;;;;;;14.95;8.05;;;;;;;;;;5040574;28;20032;-70
2023/07/06 04:36:22;;;;;;;13.50;7.82;;;;;;;;;;5049056;28;20029;-71
2023/07/06 04:38:49;;;;;;;21.40;10.27;;;;;;;;;;5043330;28;20040;-71
2023/07/06 04:41:15;;;;;;;24.55;10.90;;;;;;;;;;5041941;28;20472;-71
2023/07/06 04:43:41;;;;;;;22.25;10.05;;;;;;;;;;5037747;28;20060;-70
2023/07/06 04:46:08;;;;;;;18.05;9.48;;;;;;;;;;5060132;28;20029;-71
2023/07/06 04:48:34;;;;;;;16.80;8.85;;;;;;;;;;5048818;28;20029;-71
2023/07/06 04:51:01;;;;;;;20.42;10.13;;;;;;;;;;5041742;28;20037;-70
2023/07/06 04:53:28;;;;;;;23.35;10.05;;;;;;;;;;5037131;28;20525;-70
2023/07/06 04:55:56;;;;;;;18.58;10.52;;;;;;;;;;5041035;28;20038;-70
2023/07/06 04:58:22;;;;;;;29.33;11.57;;;;;;;;;;5038479;28;20032;-70
2023/07/06 05:00:50;;;;;;;24.48;10.45;;;;;;;;;;5037241;28;20036;-70
2023/07/06 05:03:16;;;;;;;28.85;10.93;;;;;;;;;;5041036;28;20510;-70
2023/07/06 05:05:45;;;;;;;22.52;10.32;;;;;;;;;;5040988;28;20041;-70
2023/07/06 05:08:15;;;;;;;27.95;12.07;;;;;;;;;;5046714;28;20039;-70
2023/07/06 05:10:46;;;;;;;22.42;11.48;;;;;;;;;;5042352;28;20028;-70
2023/07/06 05:13:13;;;;;;;28.27;11.75;;;;;;;;;;5037630;28;20410;-70
2023/07/06 05:15:39;;;;;;;27.25;11.20;;;;;;;;;;5041919;28;20108;-70
2023/07/06 05:18:06;;;;;;;25.88;13.45;;;;;;;;;;5040025;28;20542;-70
2023/07/06 05:20:32;;;;;;;30.42;11.85;;;;;;;;;;5037074;28;20082;-70
2023/07/06 05:22:58;;;;;;;24.75;11.77;;;;;;;;;;5043454;28;20029;-70
2023/07/06 05:25:26;;;;;;;17.83;10.95;;;;;;;;;;5041803;28;21132;-70
2023/07/06 05:27:52;;;;;;;24.67;11.90;;;;;;;;;;5040601;28;20128;-70
2023/07/06 05:30:18;;;;;;;24.25;10.85;;;;;;;;;;5033519;28;20044;-70
2023/07/06 05:32:44;;;;;;;25.23;10.35;;;;;;;;;;5039824;28;20040;-70
2023/07/06 05:35:13;;;;;;;25.30;10.98;;;;;;;;;;5046029;28;22647;-70
2023/07/06 05:37:41;;;;;;;21.73;9.98;;;;;;;;;;5040503;28;20033;-70
2023/07/06 05:40:08;;;;;;;25.75;10.70;;;;;;;;;;5046324;28;20029;-71
2023/07/06 05:42:34;;;;;;;22.45;10.18;;;;;;;;;;5041105;28;20045;-70
2023/07/06 05:45:00;;;;;;;23.40;11.85;;;;;;;;;;5038229;28;20475;-70
2023/07/06 05:47:29;;;;;;;27.88;11.18;;;;;;;;;;5042128;28;20033;-70
2023/07/06 05:49:55;;;;;;;23.70;9.98;;;;;;;;;;5039145;28;20022;-70
2023/07/06 05:52:21;;;;;;;22.90;10.73;;;;;;;;;;5036898;28;20034;-71
2023/07/06 05:54:47;;;;;;;27.67;10.55;;;;;;;;;;5033223;28;20021;-70
2023/07/06 05:57:16;;;;;;;29.70;10.68;;;;;;;;;;5039952;28;20079;-71
2023/07/06 05:59:42;;;;;;;30.05;10.68;;;;;;;;;;5039224;28;20475;-70
2023/07/06 06:02:12;;;;;;;26.00;10.38;;;;;;;;;;5044574;28;20102;-71
2023/07/06 06:04:38;;;;;;;21.10;9.75;;;;;;;;;;5033630;28;20058;-71
2023/07/06 06:07:06;;;;;;;27.73;10.35;;;;;;;;;;5052262;28;20482;-71
2023/07/06 06:09:35;;;;;;;38.20;11.25;;;;;;;;;;5043059;28;20069;-70
2023/07/06 06:12:04;;;;;;;26.17;10.38;;;;;;;;;;5047835;28;20106;-76
2023/07/06 06:14:30;;;;;;;32.95;11.32;;;;;;;;;;5044392;28;20087;-75
2023/07/06 06:16:56;;;;;;;30.90;17.35;;;;;;;;;;5041972;28;20116;-76
2023/07/06 06:19:23;;;;;;;20.15;9.07;;;;;;;;;;5045098;28;20044;-75
2023/07/06 06:21:50;;;;;;;18.30;8.68;;;;;;;;;;5042127;28;20036;-75
2023/07/06 06:24:17;;;;;;;17.45;7.68;;;;;;;;;;5036051;28;20126;-75
2023/07/06 06:26:43;;;;;;;20.75;7.32;;;;;;;;;;5058787;28;20532;-71
2023/07/06 06:29:10;;;;;;;21.27;8.00;;;;;;;;;;5059088;28;20036;-69
2023/07/06 06:31:36;;;;;;;26.98;8.95;;;;;;;;;;5046473;28;20306;-72
2023/07/06 06:34:02;;;;;;;20.10;7.13;;;;;;;;;;5044746;28;20037;-72
2023/07/06 06:36:30;;;;;;;18.60;6.70;;;;;;;;;;5047953;28;20049;-70
2023/07/06 06:38:56;;;;;;;16.33;5.80;;;;;;;;;;5057909;28;20120;-72
2023/07/06 06:41:22;;;;;;;18.38;6.85;;;;;;;;;;5050672;28;20037;-72
2023/07/06 06:43:48;;;;;;;14.63;5.95;;;;;;;;;;5050398;28;20082;-73
2023/07/06 06:46:15;;;;;;;22.60;5.85;;;;;;;;;;5050550;28;20033;-70
2023/07/06 06:48:42;;;;;;;37.25;21.40;;;;;;;;;;5033307;28;20036;-71
2023/07/06 06:51:08;;;;;;;15.70;4.72;;;;;;;;;;5048405;28;20110;-70
2023/07/06 06:53:37;;;;;;;16.05;4.25;;;;;;;;;;5049433;28;20146;-70
2023/07/06 06:56:04;;;;;;;27.33;4.90;;;;;;;;;;5049106;28;20470;-71
2023/07/06 06:58:30;;;;;;;15.88;4.53;;;;;;;;;;5050917;28;20119;-70
2023/07/06 07:00:58;;;;;;;8.15;3.70;;;;;;;;;;5049499;28;20089;-71
2023/07/06 07:03:24;;;;;;;19.00;4.28;;;;;;;;;;5040536;28;20065;-71
2023/07/06 07:05:58;;;;;;;12.77;3.80;;;;;;;;;;5034651;28;20060;-72
2023/07/06 07:08:24;;;;;;;15.75;7.20;;;;;;;;;;5049272;28;20033;-70
2023/07/06 07:10:53;;;;;;;10.70;3.35;;;;;;;;;;5049941;28;20033;-70
2023/07/06 07:13:19;;;;;;;18.00;7.45;;;;;;;;;;5055358;28;20074;-70
2023/07/06 07:15:45;;;;;;;11.68;2.83;;;;;;;;;;5047973;28;20485;-70
2023/07/06 07:18:11;;;;;;;11.25;2.90;;;;;;;;;;5050386;28;20043;-70
2023/07/06 07:20:38;;;;;;;11.55;2.97;;;;;;;;;;5048978;28;20033;-70
2023/07/06 07:23:05;;;;;;;11.55;3.15;;;;;;;;;;5049988;28;20091;-73
2023/07/06 07:25:31;;;;;;;9.60;2.70;;;;;;;;;;5030711;28;20049;-72
2023/07/06 07:27:57;;;;;;;10.52;2.58;;;;;;;;;;5031827;28;20038;-73
2023/07/06 07:30:23;;;;;;;10.00;2.80;;;;;;;;;;5046678;28;20075;-73
2023/07/06 07:32:50;;;;;;;11.13;2.63;;;;;;;;;;5045832;28;20075;-73
2023/07/06 07:35:16;;;;;;;7.15;2.15;;;;;;;;;;5040974;28;20052;-73
2023/07/06 07:37:47;;;;;;;4.78;1.75;;;;;;;;;;5047508;28;20024;-73
2023/07/06 07:40:17;;;;;;;13.93;2.67;;;;;;;;;;5046132;28;20116;-72
2023/07/06 07:42:46;;;;;;;21.40;12.82;;;;;;;;;;5049964;28;20078;-71
2023/07/06 07:45:13;;;;;;;5.90;1.90;;;;;;;;;;5047796;28;20032;-71
2023/07/06 07:47:39;;;;;;;8.38;2.10;;;;;;;;;;5043495;28;20028;-71
2023/07/06 07:50:05;;;;;;;7.38;1.95;;;;;;;;;;5062563;28;20033;-71
2023/07/06 07:52:31;;;;;;;5.93;1.70;;;;;;;;;;5048802;28;20036;-74
2023/07/06 07:54:57;;;;;;;4.85;1.80;;;;;;;;;;5046110;28;20021;-73
2023/07/06 07:57:23;;;;;;;7.47;2.22;;;;;;;;;;5047196;28;20029;-73
2023/07/06 07:59:49;;;;;;;6.72;2.17;;;;;;;;;;5042179;28;20052;-71
2023/07/06 08:02:15;;;;;;;5.38;1.50;;;;;;;;;;5063431;28;20049;-72
2023/07/06 08:04:41;;;;;;;5.85;2.03;;;;;;;;;;5050530;28;20024;-71
2023/07/06 08:07:07;;;;;;;4.25;1.58;;;;;;;;;;5065368;28;20033;-72
2023/07/06 08:09:34;;;;;;;7.03;1.80;;;;;;;;;;5039994;28;20143;-71
2023/07/06 08:12:02;;;;;;;5.95;1.60;;;;;;;;;;5042214;28;20104;-71
2023/07/06 08:14:33;;;;;;;7.85;1.20;;;;;;;;;;5037803;28;20494;-71
2023/07/06 08:16:59;;;;;;;4.97;1.20;;;;;;;;;;5040683;28;20029;-71
2023/07/06 08:19:26;;;;;;;7.03;1.88;;;;;;;;;;5040085;28;20063;-71
2023/07/06 08:21:52;;;;;;;4.82;1.17;;;;;;;;;;5040097;28;20037;-71
2023/07/06 08:24:18;;;;;;;4.45;1.40;;;;;;;;;;5043994;28;20043;-72
2023/07/06 08:26:45;;;;;;;6.25;2.42;;;;;;;;;;5046820;28;20037;-72
2023/07/06 08:29:11;;;;;;;11.30;2.88;;;;;;;;;;5048956;28;20037;-72
2023/07/06 08:31:38;;;;;;;6.93;2.00;;;;;;;;;;5049182;28;20075;-72
2023/07/06 08:34:04;;;;;;;6.20;2.28;;;;;;;;;;5041409;28;20025;-72
2023/07/06 08:36:30;;;;;;;13.05;6.70;;;;;;;;;;5054138;28;20052;-70
2023/07/06 08:38:56;;;;;;;7.00;1.88;;;;;;;;;;5050423;28;20041;-71
2023/07/06 08:41:26;;;;;;;9.15;2.55;;;;;;;;;;5048252;28;20036;-70
2023/07/06 08:43:53;;;;;;;4.97;1.60;;;;;;;;;;5036967;28;20039;-72
2023/07/06 08:46:20;;;;;;;6.28;1.63;;;;;;;;;;5048709;28;20033;-69
2023/07/06 08:48:46;;;;;;;5.43;2.03;;;;;;;;;;5043462;28;20045;-71
2023/07/06 08:51:22;;;;;;;5.20;1.45;;;;;;;;;;5048067;28;20702;-70
2023/07/06 08:54:10;;;;;;;6.95;1.73;;;;;;;;;;5053131;28;20385;-72
2023/07/06 08:56:36;;;;;;;4.50;1.42;;;;;;;;;;5038417;28;20040;-72
2023/07/06 08:59:07;;;;;;;4.03;1.70;;;;;;;;;;5051366;28;20045;-72
2023/07/06 09:01:33;;;;;;;6.80;1.52;;;;;;;;;;5048674;28;20127;-72
2023/07/06 09:04:01;;;;;;;3.80;1.48;;;;;;;;;;5042204;28;20495;-72
2023/07/06 09:06:28;;;;;;;4.85;1.65;;;;;;;;;;5049883;28;20135;-72
2023/07/06 09:09:01;;;;;;;5.30;1.40;;;;;;;;;;5051937;28;20033;-72
2023/07/06 09:11:31;;;;;;;4.65;1.77;;;;;;;;;;5051227;28;20693;-72
2023/07/06 09:14:17;;;;;;;7.53;1.52;;;;;;;;;;5050604;28;20029;-72
2023/07/06 09:16:46;;;;;;;10.13;1.73;;;;;;;;;;5049992;28;20744;-71
2023/07/06 09:19:14;;;;;;;7.68;1.63;;;;;;;;;;5048637;28;20037;-71
2023/07/06 09:21:43;;;;;;;6.60;1.65;;;;;;;;;;5043639;28;20100;-70
2023/07/06 09:24:11;;;;;;;3.72;1.90;;;;;;;;;;5051391;28;20033;-71
2023/07/06 09:26:38;;;;;;;4.07;2.17;;;;;;;;;;5049999;28;20502;-71
2023/07/06 09:29:17;;;;;;;3.40;1.48;;;;;;;;;;5049523;28;20029;-70
2023/07/06 09:31:44;;;;;;;5.35;1.45;;;;;;;;;;5052623;28;20025;-70
2023/07/06 09:34:25;;;;;;;8.30;3.00;;;;;;;;;;5049074;28;20460;-70
2023/07/06 09:36:51;;;;;;;2.28;1.38;;;;;;;;;;5050849;28;20079;-70
2023/07/06 09:39:17;;;;;;;4.13;1.40;;;;;;;;;;5031868;28;21431;-71
2023/07/06 09:41:44;;;;;;;4.22;1.92;;;;;;;;;;5043096;28;20473;-71
2023/07/06 09:44:13;;;;;;;4.18;2.00;;;;;;;;;;5049955;28;20025;-71
2023/07/06 09:46:40;;;;;;;12.25;1.83;;;;;;;;;;5053247;28;20024;-71
2023/07/06 09:49:19;;;;;;;7.75;1.52;;;;;;;;;;5048043;28;20116;-71
2023/07/06 09:51:50;;;;;;;4.03;1.67;;;;;;;;;;5045931;28;20025;-71
2023/07/06 09:54:21;;;;;;;13.07;1.95;;;;;;;;;;5053799;28;20079;-71
2023/07/06 09:56:48;;;;;;;7.93;2.00;;;;;;;;;;5048757;28;20152;-72
2023/07/06 09:59:14;;;;;;;5.95;2.13;;;;;;;;;;5044934;28;21782;-71
2023/07/06 10:02:01;;;;;;;8.65;2.10;;;;;;;;;;5034184;28;20131;-71
2023/07/06 10:04:47;;;;;;;9.00;2.20;;;;;;;;;;5048052;28;20128;-71
2023/07/06 10:07:23;;;;;;;5.85;2.10;;;;;;;;;;5038155;28;20044;-71
2023/07/06 10:10:08;;;;;;;7.20;2.20;;;;;;;;;;5051174;28;20352;-72
2023/07/06 10:12:45;;;;;;;9.48;2.17;;;;;;;;;;5048984;28;20460;-71
2023/07/06 10:15:17;;;;;;;5.10;2.00;;;;;;;;;;5047015;28;20036;-71
2023/07/06 10:17:47;;;;;;;8.77;2.25;;;;;;;;;;5051296;28;20500;-72
2023/07/06 10:20:27;;;;;;;7.95;2.13;;;;;;;;;;5047262;28;20386;-71
2023/07/06 10:23:11;;;;;;;9.90;2.38;;;;;;;;;;5051199;28;20045;-73
2023/07/06 10:25:46;;;;;;;3.30;1.77;;;;;;;;;;5053671;28;20028;-70
2023/07/06 10:28:18;;;;;;;10.77;2.40;;;;;;;;;;5046423;28;20036;-71
2023/07/06 10:30:47;;;;;;;7.13;2.30;;;;;;;;;;5049739;28;20098;-71
2023/07/06 10:33:21;;;;;;;6.18;2.25;;;;;;;;;;5054333;28;20393;-72
2023/07/06 10:35:50;;;;;;;4.78;1.50;;;;;;;;;;5047219;28;20020;-72
2023/07/06 10:38:16;;;;;;;3.88;1.50;;;;;;;;;;5052977;28;20104;-72
2023/07/06 10:40:43;;;;;;;3.63;1.92;;;;;;;;;;5046326;28;20054;-72
2023/07/06 10:43:09;;;;;;;8.65;1.83;;;;;;;;;;5051946;28;20383;-72
2023/07/06 10:45:35;;;;;;;5.38;1.60;;;;;;;;;;5051811;28;20041;-71
2023/07/06 10:48:10;;;;;;;5.88;1.60;;;;;;;;;;5046742;28;20197;-72
2023/07/06 10:50:47;;;;;;;6.95;1.45;;;;;;;;;;5053708;28;20147;-70
2023/07/06 10:53:22;;;;;;;5.03;1.73;;;;;;;;;;5052468;28;20044;-71
2023/07/06 10:56:04;;;;;;;6.85;1.65;;;;;;;;;;5038724;28;20042;-74
2023/07/06 10:58:32;;;;;;;10.40;2.33;;;;;;;;;;5044103;28;20036;-72
2023/07/06 11:00:59;;;;;;;7.13;1.67;;;;;;;;;;5051268;28;20458;-74
2023/07/06 11:03:31;;;;;;;5.30;1.50;;;;;;;;;;5055319;28;20144;-74
2023/07/06 11:06:08;;;;;;;4.13;1.35;;;;;;;;;;5049085;28;20028;-73
2023/07/06 11:08:53;;;;;;;3.00;1.38;;;;;;;;;;5050889;28;20028;-73
2023/07/06 11:11:20;;;;;;;4.75;1.45;;;;;;;;;;5051251;28;20553;-74
2023/07/06 11:13:51;;;;;;;3.80;0.88;;;;;;;;;;5042975;28;20370;-72
2023/07/06 11:16:35;;;;;;;6.93;1.10;;;;;;;;;;5051725;28;20013;-73
2023/07/06 11:19:02;;;;;;;3.80;1.00;;;;;;;;;;5050029;28;20032;-73
2023/07/06 11:21:43;;;;;;;2.67;1.00;;;;;;;;;;5050412;28;20037;-73
2023/07/06 11:24:12;;;;;;;2.25;0.70;;;;;;;;;;5055390;28;20186;-72
2023/07/06 11:26:48;;;;;;;4.55;0.80;;;;;;;;;;5049777;28;20024;-73
2023/07/06 11:29:15;;;;;;;2.85;1.00;;;;;;;;;;5048955;28;20036;-72
2023/07/06 11:31:53;;;;;;;3.58;0.90;;;;;;;;;;5051630;28;20028;-74
2023/07/06 11:34:35;;;;;;;1.55;0.90;;;;;;;;;;5046142;28;20033;-74
2023/07/06 11:37:07;;;;;;;6.90;1.63;;;;;;;;;;5051248;28;20256;-74
2023/07/06 11:39:36;;;;;;;3.35;0.80;;;;;;;;;;5047901;28;20039;-76
2023/07/06 11:42:07;;;;;;;3.72;0.80;;;;;;;;;;5048414;28;20032;-75
2023/07/06 11:44:35;;;;;;;4.15;1.00;;;;;;;;;;5047192;28;20040;-72
2023/07/06 11:47:19;;;;;;;3.08;0.55;;;;;;;;;;5045634;28;20063;-73
2023/07/06 11:49:57;;;;;;;1.63;0.70;;;;;;;;;;5048348;28;20076;-71
2023/07/06 11:52:30;;;;;;;3.40;1.38;;;;;;;;;;5045034;28;20474;-72
2023/07/06 11:55:07;;;;;;;4.93;1.00;;;;;;;;;;5042320;28;20386;-72
2023/07/06 11:57:46;;;;;;;1.80;0.63;;;;;;;;;;5049616;28;20455;-72
2023/07/06 12:02:58;;;;;;;2.83;0.85;;;;;;;;;;5043735;28;20052;-72
2023/07/06 12:05:26;;;;;;;3.58;1.00;;;;;;;;;;5054548;28;20492;-73
2023/07/06 12:08:00;;;;;;;3.47;1.00;;;;;;;;;;5049102;28;20021;-71
2023/07/06 12:10:27;;;;;;;4.35;0.80;;;;;;;;;;5054009;28;20104;-71
2023/07/06 12:12:55;;;;;;;2.40;1.10;;;;;;;;;;5039842;28;20025;-72
2023/07/06 12:15:22;;;;;;;1.63;1.00;;;;;;;;;;5052927;28;20078;-72
2023/07/06 12:17:55;;;;;;;6.82;1.58;;;;;;;;;;5053291;28;20037;-71
2023/07/06 12:20:21;;;;;;;6.38;1.20;;;;;;;;;;5054412;28;20112;-71
2023/07/06 12:22:52;;;;;;;1.52;0.90;;;;;;;;;;5053771;28;20459;-72
2023/07/06 12:25:19;;;;;;;3.28;1.25;;;;;;;;;;5051716;28;20474;-71
2023/07/06 12:27:45;;;;;;;2.60;1.15;;;;;;;;;;5050477;28;20017;-71
2023/07/06 12:30:14;;;;;;;3.50;1.00;;;;;;;;;;5051390;28;20394;-71
2023/07/06 12:32:40;;;;;;;2.53;0.80;;;;;;;;;;5052623;28;20060;-71
2023/07/06 12:35:08;;;;;;;3.50;1.00;;;;;;;;;;5051311;28;20040;-72
2023/07/06 12:37:34;;;;;;;2.60;1.25;;;;;;;;;;5053583;28;20064;-72
2023/07/06 12:40:00;;;;;;;2.00;0.90;;;;;;;;;;5046421;28;20048;-71
2023/07/06 12:42:27;;;;;;;2.72;1.02;;;;;;;;;;5036285;28;20033;-72
2023/07/06 12:44:53;;;;;;;3.97;1.27;;;;;;;;;;5053386;28;20187;-72
2023/07/06 12:47:19;;;;;;;2.45;1.10;;;;;;;;;;5052336;28;20029;-72
2023/07/06 12:49:46;;;;;;;4.40;1.20;;;;;;;;;;5051521;28;20051;-71
2023/07/06 12:52:12;;;;;;;2.58;0.90;;;;;;;;;;5053894;28;20032;-71
2023/07/06 12:54:48;;;;;;;5.25;1.10;;;;;;;;;;5050797;28;20483;-72
2023/07/06 12:57:18;;;;;;;3.05;1.30;;;;;;;;;;5051084;28;20021;-71
2023/07/06 12:59:44;;;;;;;5.55;1.67;;;;;;;;;;5052260;28;20033;-72
2023/07/06 13:02:33;;;;;;;2.35;1.13;;;;;;;;;;5053082;28;20067;-71
2023/07/06 13:05:14;;;;;;;2.38;1.10;;;;;;;;;;5052317;28;20044;-72
2023/07/06 13:07:41;;;;;;;3.40;0.95;;;;;;;;;;5046826;28;20091;-72
2023/07/06 13:10:13;;;;;;;3.35;1.30;;;;;;;;;;5049361;28;20033;-72
2023/07/06 13:12:42;;;;;;;3.97;1.40;;;;;;;;;;5052820;28;20474;-73
2023/07/06 13:15:14;;;;;;;2.95;1.30;;;;;;;;;;5052393;28;20066;-72
2023/07/06 13:17:40;;;;;;;3.58;1.13;;;;;;;;;;5052306;28;20024;-72
2023/07/06 13:20:08;;;;;;;5.03;1.30;;;;;;;;;;5051878;28;20540;-72
2023/07/06 13:22:35;;;;;;;3.13;0.90;;;;;;;;;;5052020;28;20537;-72
2023/07/06 13:25:03;;;;;;;4.63;1.85;;;;;;;;;;5040062;28;20406;-72
2023/07/06 13:27:29;;;;;;;2.63;0.95;;;;;;;;;;5052653;28;20013;-72
2023/07/06 13:29:55;;;;;;;5.50;1.65;;;;;;;;;;5051973;28;20112;-72
2023/07/06 13:32:22;;;;;;;5.22;1.30;;;;;;;;;;5052878;28;20063;-72
2023/07/06 13:34:49;;;;;;;5.70;1.50;;;;;;;;;;5052965;28;20147;-71
2023/07/06 13:37:24;;;;;;;6.90;1.48;;;;;;;;;;5039500;28;20030;-72
2023/07/06 13:39:50;;;;;;;6.88;1.38;;;;;;;;;;5047822;28;20083;-72
2023/07/06 13:42:21;;;;;;;5.22;1.30;;;;;;;;;;5050452;28;20096;-72
2023/07/06 13:44:49;;;;;;;4.53;1.63;;;;;;;;;;5045542;28;20062;-72
2023/07/06 13:47:18;;;;;;;4.60;1.30;;;;;;;;;;5050815;28;20021;-72
2023/07/06 13:49:44;;;;;;;3.72;1.38;;;;;;;;;;5051973;28;20311;-71
2023/07/06 13:52:11;;;;;;;4.13;1.48;;;;;;;;;;5051950;28;20029;-72
2023/07/06 13:54:38;;;;;;;5.13;1.45;;;;;;;;;;5051595;28;20029;-72
2023/07/06 13:57:04;;;;;;;5.95;1.40;;;;;;;;;;5051314;28;20028;-72
2023/07/06 13:59:31;;;;;;;3.85;1.35;;;;;;;;;;5047012;28;20075;-71
2023/07/06 14:02:02;;;;;;;6.50;1.05;;;;;;;;;;5050469;28;20045;-71
2023/07/06 14:04:28;;;;;;;3.63;1.50;;;;;;;;;;5034013;28;20021;-72
2023/07/06 14:06:55;;;;;;;1.95;0.98;;;;;;;;;;5042390;28;20032;-72
2023/07/06 14:09:21;;;;;;;3.25;1.15;;;;;;;;;;5051965;28;20116;-72
2023/07/06 14:11:47;;;;;;;2.75;1.00;;;;;;;;;;5049875;28;20028;-72
2023/07/06 14:14:14;;;;;;;10.43;2.25;;;;;;;;;;5049377;28;20593;-72
2023/07/06 14:16:40;;;;;;;3.83;1.63;;;;;;;;;;5044708;28;20039;-71
2023/07/06 14:19:06;;;;;;;5.03;1.30;;;;;;;;;;5049663;28;20033;-72
2023/07/06 14:21:37;;;;;;;6.55;1.35;;;;;;;;;;5052252;28;20542;-71
2023/07/06 14:24:03;;;;;;;2.47;1.02;;;;;;;;;;5050714;28;20560;-72
2023/07/06 14:26:29;;;;;;;4.35;1.35;;;;;;;;;;5039579;28;20029;-72
2023/07/06 14:28:55;;;;;;;3.08;1.10;;;;;;;;;;5050439;28;20029;-72
2023/07/06 14:31:22;;;;;;;3.17;1.20;;;;;;;;;;5047647;28;20033;-73
2023/07/06 14:33:48;;;;;;;4.00;1.25;;;;;;;;;;5044089;28;20013;-71
2023/07/06 14:36:15;;;;;;;5.57;1.15;;;;;;;;;;5050752;28;20075;-71
2023/07/06 14:38:41;;;;;;;6.00;1.00;;;;;;;;;;5051111;28;20029;-71
2023/07/06 14:41:07;;;;;;;4.00;0.93;;;;;;;;;;5051794;28;20021;-72
2023/07/06 14:43:33;;;;;;;2.45;1.00;;;;;;;;;;5031840;28;20029;-71
2023/07/06 14:46:01;;;;;;;3.55;1.02;;;;;;;;;;5042774;28;20363;-72